Time;durP1;ratioP1;P1;durP2;ratioP2;P2;SDS_P1;SDS_P2;PMS_P1;PMS_P2;Temp;Humidity;BMP_temperature;BMP_pressure;BME280_temperature;BME280_humidity;BME280_pressure;Samples;Min_cycle;Max_cycle;Signal;HPM_P1;HPM_P2
2021/12/12 00:01:50;;;;;;;11.70;8.80;;;3.30;99.90;;;;;;5081276;28;20461;-63
2021/12/12 00:04:22;;;;;;;16.03;8.80;;;3.30;99.90;;;;;;5081175;28;20774;-63
2021/12/12 00:06:51;;;;;;;15.53;8.90;;;3.30;99.90;;;;;;5080698;28;20564;-63
2021/12/12 00:09:24;;;;;;;12.40;8.10;;;3.30;99.90;;;;;;5080336;28;20825;-63
2021/12/12 00:11:53;;;;;;;12.87;8.27;;;3.30;99.90;;;;;;5080613;28;20485;-63
2021/12/12 00:14:25;;;;;;;18.20;8.00;;;3.30;99.90;;;;;;5073476;28;20515;-63
2021/12/12 00:16:53;;;;;;;11.37;8.17;;;3.30;99.90;;;;;;5081569;28;20465;-63
2021/12/12 00:19:25;;;;;;;12.20;7.80;;;3.30;99.90;;;;;;5080164;28;20462;-63
2021/12/12 00:21:55;;;;;;;15.27;7.50;;;3.30;99.90;;;;;;5062149;28;20776;-63
2021/12/12 00:24:23;;;;;;;11.47;6.53;;;3.30;99.90;;;;;;5080587;28;20461;-63
2021/12/12 00:26:52;;;;;;;10.43;7.27;;;3.30;99.90;;;;;;5080747;28;20489;-63
2021/12/12 00:29:22;;;;;;;12.77;7.63;;;3.30;99.90;;;;;;5080520;28;20485;-63
2021/12/12 00:31:52;;;;;;;12.80;6.93;;;3.30;99.90;;;;;;5079436;28;20571;-63
2021/12/12 00:34:23;;;;;;;11.20;7.13;;;3.20;99.90;;;;;;5079716;28;20462;-63
2021/12/12 00:36:50;;;;;;;12.10;7.27;;;3.20;99.90;;;;;;5079995;28;20468;-63
2021/12/12 00:39:29;;;;;;;17.50;7.20;;;3.30;99.90;;;;;;5080399;28;20750;-63
2021/12/12 00:41:59;;;;;;;11.07;8.70;;;3.20;99.90;;;;;;5078890;28;20459;-63
2021/12/12 00:44:33;;;;;;;13.07;7.40;;;3.30;99.90;;;;;;5080002;28;20460;-63
2021/12/12 00:47:03;;;;;;;11.13;7.10;;;3.20;99.90;;;;;;5079779;28;20495;-63
2021/12/12 00:49:33;;;;;;;12.80;5.90;;;3.30;99.90;;;;;;5080727;28;20529;-64
2021/12/12 00:52:00;;;;;;;14.90;7.70;;;3.20;99.90;;;;;;5078820;28;20497;-63
2021/12/12 00:54:31;;;;;;;12.90;7.17;;;3.20;99.90;;;;;;5080120;28;20458;-64
2021/12/12 00:57:02;;;;;;;12.03;6.40;;;3.30;99.90;;;;;;5079434;28;20523;-63
2021/12/12 00:59:31;;;;;;;14.60;7.17;;;3.20;99.90;;;;;;5080422;28;20464;-63
2021/12/12 01:02:01;;;;;;;10.30;7.20;;;3.20;99.90;;;;;;5079305;28;20965;-63
2021/12/12 01:04:33;;;;;;;17.27;6.90;;;3.20;99.90;;;;;;5080694;28;20465;-63
2021/12/12 01:07:06;;;;;;;12.30;6.30;;;3.20;99.90;;;;;;5079941;28;20810;-63
2021/12/12 01:09:41;;;;;;;8.00;6.07;;;3.20;99.90;;;;;;5079619;28;20453;-63
2021/12/12 01:12:12;;;;;;;11.87;6.97;;;3.20;99.90;;;;;;5079350;28;21015;-63
2021/12/12 01:14:42;;;;;;;10.27;7.10;;;3.10;99.90;;;;;;5079355;28;20560;-63
2021/12/12 01:17:15;;;;;;;12.90;6.60;;;3.10;99.90;;;;;;5079446;28;20472;-63
2021/12/12 01:19:49;;;;;;;11.03;7.23;;;3.10;99.90;;;;;;5079027;28;20495;-63
2021/12/12 01:22:23;;;;;;;15.27;8.00;;;3.10;99.90;;;;;;5079244;28;20760;-63
2021/12/12 01:24:52;;;;;;;12.77;7.00;;;3.10;99.90;;;;;;5078719;28;20461;-63
2021/12/12 01:27:20;;;;;;;16.10;7.80;;;3.00;99.90;;;;;;5079542;28;20461;-63
2021/12/12 01:29:49;;;;;;;12.43;7.63;;;3.00;99.90;;;;;;5079273;28;20472;-63
2021/12/12 01:32:25;;;;;;;10.20;6.97;;;3.00;99.90;;;;;;5079631;28;20520;-63
2021/12/12 01:34:58;;;;;;;15.57;10.13;;;3.00;99.90;;;;;;5078482;28;20476;-63
2021/12/12 01:37:38;;;;;;;13.63;6.27;;;3.00;99.90;;;;;;5078993;28;20819;-63
2021/12/12 01:40:14;;;;;;;12.13;7.07;;;2.90;99.90;;;;;;5078765;28;20450;-63
2021/12/12 01:42:44;;;;;;;16.50;7.40;;;3.00;99.90;;;;;;5078943;28;20457;-63
2021/12/12 01:45:15;;;;;;;11.73;6.23;;;3.00;99.90;;;;;;5078506;28;20838;-63
2021/12/12 01:47:54;;;;;;;19.93;7.13;;;3.00;99.90;;;;;;5077299;28;20470;-63
2021/12/12 01:50:26;;;;;;;11.83;5.80;;;3.00;99.90;;;;;;5078865;28;20527;-63
2021/12/12 01:52:58;;;;;;;10.87;6.80;;;3.00;99.90;;;;;;5077451;28;20516;-63
2021/12/12 01:55:28;;;;;;;11.83;6.10;;;3.10;99.90;;;;;;5078473;28;20826;-63
2021/12/12 01:57:58;;;;;;;10.23;6.00;;;3.00;99.90;;;;;;5077463;28;20531;-63
2021/12/12 02:00:33;;;;;;;14.50;6.17;;;3.00;99.90;;;;;;5078134;28;20887;-63
2021/12/12 02:03:02;;;;;;;11.13;6.43;;;3.10;99.90;;;;;;5077968;28;20510;-63
2021/12/12 02:05:31;;;;;;;10.67;7.43;;;3.00;99.90;;;;;;5077192;28;20491;-63
2021/12/12 02:08:02;;;;;;;11.43;7.23;;;3.10;99.90;;;;;;5077686;28;20465;-63
2021/12/12 02:10:32;;;;;;;12.43;7.77;;;3.00;99.90;;;;;;5077586;28;20473;-63
2021/12/12 02:13:02;;;;;;;13.27;8.00;;;3.00;99.90;;;;;;5077773;28;20452;-63
2021/12/12 02:15:31;;;;;;;14.37;7.37;;;3.00;99.90;;;;;;5078131;28;20465;-63
2021/12/12 02:18:04;;;;;;;15.83;7.60;;;3.10;99.90;;;;;;5077625;28;20469;-63
2021/12/12 02:20:40;;;;;;;9.13;6.23;;;3.00;99.90;;;;;;5076511;28;20466;-63
2021/12/12 02:23:19;;;;;;;17.70;7.90;;;3.00;99.90;;;;;;5077343;28;20555;-63
2021/12/12 02:36:53;;;;;;;13.23;8.20;;;3.10;99.90;;;;;;5077186;28;20460;-63
2021/12/12 02:39:22;;;;;;;9.80;6.93;;;3.20;99.90;;;;;;5076862;28;20830;-62
2021/12/12 02:41:52;;;;;;;9.73;6.50;;;3.10;99.90;;;;;;5077347;28;20436;-63
2021/12/12 02:44:27;;;;;;;12.53;6.50;;;3.20;99.90;;;;;;5076675;28;20461;-63
2021/12/12 02:46:57;;;;;;;12.37;5.93;;;3.20;90.00;;;;;;5077202;28;20492;-63
2021/12/12 02:49:37;;;;;;;10.37;5.57;;;3.20;59.20;;;;;;5076472;28;20468;-62
2021/12/12 02:52:06;;;;;;;10.03;5.90;;;3.20;19.60;;;;;;5062900;28;20483;-62
2021/12/12 02:54:35;;;;;;;11.30;5.93;;;3.20;51.60;;;;;;5077306;28;20436;-62
2021/12/12 02:57:03;;;;;;;9.13;5.77;;;3.30;17.70;;;;;;5076197;28;20501;-63
2021/12/12 02:59:30;;;;;;;10.60;6.00;;;3.30;10.60;;;;;;5076176;28;20514;-62
2021/12/12 03:02:00;;;;;;;16.87;6.10;;;3.30;1.00;;;;;;5076593;28;20497;-62
2021/12/12 03:04:28;;;;;;;10.10;5.53;;;3.30;1.00;;;;;;5077376;28;20460;-62
2021/12/12 03:06:57;;;;;;;13.33;6.33;;;3.30;1.00;;;;;;5058154;28;20466;-62
2021/12/12 03:09:27;;;;;;;8.00;5.20;;;3.30;1.00;;;;;;5077092;28;20440;-63
2021/12/12 03:12:01;;;;;;;9.30;6.00;;;3.30;1.00;;;;;;5075868;28;20458;-62
2021/12/12 03:14:32;;;;;;;14.43;5.80;;;3.40;1.00;;;;;;5056704;28;20547;-62
2021/12/12 03:17:01;;;;;;;9.53;5.40;;;3.40;1.00;;;;;;5073066;28;20462;-62
2021/12/12 03:19:30;;;;;;;11.70;5.13;;;3.40;1.00;;;;;;5077391;28;21090;-63
2021/12/12 03:21:57;;;;;;;10.43;5.67;;;3.50;1.00;;;;;;5076434;28;20440;-62
2021/12/12 03:24:27;;;;;;;14.53;6.43;;;3.50;1.00;;;;;;5076340;28;20567;-64
2021/12/12 03:26:59;;;;;;;13.20;5.67;;;3.50;1.00;;;;;;5076098;28;20500;-62
2021/12/12 03:29:27;;;;;;;7.83;5.23;;;3.50;1.00;;;;;;5077030;28;20461;-62
2021/12/12 03:31:57;;;;;;;13.33;5.77;;;3.50;1.00;;;;;;5076071;28;20493;-62
2021/12/12 03:34:29;;;;;;;7.80;5.23;;;3.50;1.00;;;;;;5060320;28;20494;-62
2021/12/12 03:36:56;;;;;;;18.47;6.90;;;3.50;1.00;;;;;;5077474;28;20477;-62
2021/12/12 03:39:25;;;;;;;9.13;5.50;;;3.50;1.00;;;;;;5081004;28;20468;-62
2021/12/12 03:41:54;;;;;;;9.50;5.37;;;3.60;1.00;;;;;;5079415;28;20997;-62
2021/12/12 03:44:27;;;;;;;10.00;6.20;;;3.70;1.00;;;;;;5079691;28;20485;-62
2021/12/12 03:46:58;;;;;;;9.10;5.20;;;3.70;99.90;;;;;;5079392;28;20542;-62
2021/12/12 03:49:25;;;;;;;10.00;5.63;;;3.60;99.90;;;;;;5096342;28;20887;-62
2021/12/12 03:51:53;;;;;;;13.33;5.93;;;3.60;99.90;;;;;;5082938;28;20465;-62
2021/12/12 03:54:20;;;;;;;10.10;5.30;;;3.60;99.90;;;;;;5079384;28;20513;-62
2021/12/12 03:56:48;;;;;;;15.00;5.50;;;3.60;1.00;;;;;;5079246;28;20514;-62
2021/12/12 03:59:16;;;;;;;11.80;5.80;;;3.60;1.00;;;;;;5079861;28;20902;-62
2021/12/12 04:01:48;;;;;;;10.33;6.10;;;3.60;1.00;;;;;;5080193;28;20461;-62
2021/12/12 04:04:19;;;;;;;13.40;5.50;;;3.70;1.00;;;;;;5079308;28;20457;-62
2021/12/12 04:06:50;;;;;;;11.83;6.27;;;3.60;1.00;;;;;;5079961;28;20461;-62
2021/12/12 04:09:19;;;;;;;9.40;5.40;;;3.60;1.00;;;;;;5079860;28;20534;-62
2021/12/12 04:11:51;;;;;;;9.13;5.23;;;3.60;1.00;;;;;;5078431;28;20825;-62
2021/12/12 04:14:21;;;;;;;12.97;6.07;;;3.70;1.00;;;;;;5079285;28;20495;-62
2021/12/12 04:16:52;;;;;;;10.10;5.43;;;3.60;1.00;;;;;;5079565;28;20493;-62
2021/12/12 04:19:20;;;;;;;10.33;5.87;;;3.60;1.00;;;;;;5080429;28;20510;-62
2021/12/12 04:21:47;;;;;;;9.47;5.30;;;3.60;1.00;;;;;;5075850;28;20469;-62
2021/12/12 04:24:23;;;;;;;14.97;6.33;;;3.70;1.00;;;;;;5079489;28;20462;-62
2021/12/12 04:26:51;;;;;;;14.33;5.80;;;3.70;1.00;;;;;;5079374;28;20827;-62
2021/12/12 04:29:21;;;;;;;13.50;6.50;;;3.70;1.00;;;;;;5064812;28;20440;-62
2021/12/12 04:31:54;;;;;;;11.40;6.00;;;3.70;1.00;;;;;;5080314;28;20519;-62
2021/12/12 04:34:24;;;;;;;10.93;5.73;;;3.70;3.50;;;;;;5080782;28;20499;-63
2021/12/12 04:36:54;;;;;;;17.37;7.33;;;3.70;75.10;;;;;;5081320;28;20511;-63
2021/12/12 04:39:25;;;;;;;13.03;6.23;;;3.70;99.90;;;;;;5080005;28;20508;-61
2021/12/12 04:41:57;;;;;;;7.30;6.37;;;3.70;99.90;;;;;;5078916;28;20472;-59
2021/12/12 04:44:27;;;;;;;8.23;6.37;;;3.70;99.90;;;;;;5058858;28;20454;-61
2021/12/12 04:49:57;;;;;;;14.03;6.30;;;3.60;99.90;;;;;;5081872;28;20475;-62
2021/12/12 04:52:31;;;;;;;10.77;6.03;;;3.60;99.90;;;;;;5079039;28;20439;-61
2021/12/12 04:55:04;;;;;;;10.80;5.80;;;3.60;99.90;;;;;;5079566;28;20493;-62
2021/12/12 04:57:39;;;;;;;10.93;6.67;;;3.60;99.90;;;;;;5079241;28;20924;-62
2021/12/12 05:00:10;;;;;;;10.97;6.17;;;3.60;99.90;;;;;;5078552;28;20453;-62
2021/12/12 05:02:45;;;;;;;15.00;7.23;;;3.60;99.90;;;;;;5079005;28;20507;-61
2021/12/12 05:05:18;;;;;;;12.63;7.20;;;3.60;99.90;;;;;;5079701;28;20551;-62
2021/12/12 05:07:52;;;;;;;9.87;6.00;;;3.60;99.90;;;;;;5078951;28;20463;-62
2021/12/12 05:10:25;;;;;;;10.33;6.30;;;3.60;99.90;;;;;;5078460;28;20495;-62
2021/12/12 05:12:57;;;;;;;9.47;6.73;;;3.70;99.90;;;;;;5079342;28;20936;-62
2021/12/12 05:15:29;;;;;;;10.70;6.67;;;3.70;99.90;;;;;;5078503;28;20454;-62
2021/12/12 05:18:02;;;;;;;13.40;7.87;;;3.70;99.90;;;;;;5080023;28;20511;-62
2021/12/12 05:20:33;;;;;;;17.20;6.53;;;3.70;99.90;;;;;;5077807;28;20781;-62
2021/12/12 05:23:03;;;;;;;9.33;6.17;;;3.80;99.90;;;;;;5079345;28;20457;-62
2021/12/12 05:25:41;;;;;;;18.17;7.03;;;3.80;99.90;;;;;;5079296;28;20453;-62
2021/12/12 05:28:15;;;;;;;12.90;6.23;;;3.80;99.90;;;;;;5079365;28;20518;-63
2021/12/12 05:30:42;;;;;;;12.93;7.80;;;3.80;99.90;;;;;;5078742;28;20772;-62
2021/12/12 05:33:13;;;;;;;10.00;6.27;;;3.80;99.90;;;;;;5079040;28;20489;-62
2021/12/12 05:35:42;;;;;;;17.17;7.17;;;3.80;99.90;;;;;;5078719;28;20534;-61
2021/12/12 05:38:12;;;;;;;10.80;6.63;;;3.80;99.90;;;;;;5078878;28;20509;-62
2021/12/12 05:40:41;;;;;;;18.03;7.50;;;3.80;99.90;;;;;;5078604;28;20453;-61
2021/12/12 05:43:09;;;;;;;12.07;6.43;;;3.80;99.90;;;;;;5078684;28;20542;-61
2021/12/12 05:45:37;;;;;;;13.03;6.27;;;3.80;99.90;;;;;;5078017;28;20469;-61
2021/12/12 05:48:08;;;;;;;14.27;7.07;;;3.80;99.90;;;;;;5082978;28;20507;-61
2021/12/12 05:50:39;;;;;;;11.97;7.00;;;3.80;99.90;;;;;;5089030;28;20466;-62
2021/12/12 05:53:08;;;;;;;9.27;6.70;;;3.80;99.90;;;;;;5078111;28;20827;-61
2021/12/12 05:55:37;;;;;;;17.50;7.50;;;3.80;99.90;;;;;;5076358;28;20461;-61
2021/12/12 05:58:08;;;;;;;13.00;6.47;;;3.70;99.90;;;;;;5077341;28;20466;-61
2021/12/12 06:00:39;;;;;;;10.47;7.30;;;3.80;99.90;;;;;;5077015;28;20958;-62
2021/12/12 06:03:09;;;;;;;11.93;7.20;;;3.70;99.90;;;;;;5077550;28;20774;-62
2021/12/12 06:05:39;;;;;;;17.17;8.53;;;3.70;99.90;;;;;;5077387;28;20742;-62
2021/12/12 06:08:07;;;;;;;12.60;7.37;;;3.70;99.90;;;;;;5076734;28;20468;-62
2021/12/12 06:10:37;;;;;;;16.70;8.30;;;3.70;99.90;;;;;;5076775;28;20510;-63
2021/12/12 06:13:06;;;;;;;12.00;6.33;;;3.70;99.90;;;;;;5077042;28;20497;-62
2021/12/12 06:15:34;;;;;;;10.70;8.20;;;3.70;99.90;;;;;;5077163;28;20547;-63
2021/12/12 06:18:02;;;;;;;10.60;8.40;;;3.70;99.90;;;;;;5077032;28;20519;-62
2021/12/12 06:20:29;;;;;;;14.43;8.27;;;3.70;99.90;;;;;;5076965;28;20767;-62
2021/12/12 06:22:59;;;;;;;11.67;7.90;;;3.70;99.90;;;;;;5077411;28;20898;-62
2021/12/12 06:25:27;;;;;;;10.00;7.17;;;3.70;99.90;;;;;;5057756;28;20458;-62
2021/12/12 06:27:55;;;;;;;10.67;7.23;;;3.70;99.90;;;;;;5067050;28;20857;-63
2021/12/12 06:30:24;;;;;;;13.70;7.07;;;3.70;99.90;;;;;;5076895;28;20511;-63
2021/12/12 06:32:52;;;;;;;12.00;7.67;;;3.70;99.90;;;;;;5077405;28;20462;-62
2021/12/12 06:35:20;;;;;;;11.23;8.00;;;3.70;99.90;;;;;;5076697;28;20547;-63
2021/12/12 06:37:47;;;;;;;9.20;6.70;;;3.70;99.90;;;;;;5076613;28;20519;-63
2021/12/12 06:40:20;;;;;;;11.17;6.50;;;3.80;99.90;;;;;;5076909;28;20485;-64
2021/12/12 06:42:49;;;;;;;10.77;6.03;;;3.80;99.90;;;;;;5076472;28;20522;-64
2021/12/12 06:45:18;;;;;;;12.50;7.00;;;3.80;99.90;;;;;;5077394;28;20551;-63
2021/12/12 06:47:45;;;;;;;8.23;5.70;;;3.80;99.90;;;;;;5079311;28;20493;-63
2021/12/12 06:50:12;;;;;;;8.90;6.50;;;3.80;99.90;;;;;;5097312;28;20899;-63
2021/12/12 06:52:40;;;;;;;11.13;7.17;;;3.80;99.90;;;;;;5088255;28;20530;-62
2021/12/12 06:55:14;;;;;;;9.80;6.10;;;3.80;99.90;;;;;;5077191;28;20490;-62
2021/12/12 06:57:44;;;;;;;6.40;5.33;;;3.80;99.90;;;;;;5075980;28;20465;-63
2021/12/12 07:00:16;;;;;;;6.80;5.87;;;3.90;99.90;;;;;;5075854;28;20500;-63
2021/12/12 07:02:45;;;;;;;14.73;7.27;;;3.90;99.90;;;;;;5076346;28;20454;-63
2021/12/12 07:05:15;;;;;;;10.20;7.27;;;3.90;99.90;;;;;;5077040;28;20530;-63
2021/12/12 07:07:46;;;;;;;8.80;6.00;;;3.90;99.90;;;;;;5078802;28;20515;-62
2021/12/12 07:10:16;;;;;;;9.03;6.53;;;3.90;99.90;;;;;;5081098;28;20453;-62
2021/12/12 07:12:48;;;;;;;10.87;6.33;;;3.90;99.90;;;;;;5079434;28;20493;-62
2021/12/12 07:15:17;;;;;;;8.67;6.67;;;3.90;99.90;;;;;;5079682;28;20838;-62
2021/12/12 07:17:45;;;;;;;10.00;6.37;;;3.90;99.90;;;;;;5079999;28;20453;-61
2021/12/12 07:20:13;;;;;;;9.43;5.80;;;3.90;99.90;;;;;;5080669;28;20461;-62
2021/12/12 07:22:40;;;;;;;7.27;6.20;;;3.90;99.90;;;;;;5081087;28;20461;-62
2021/12/12 07:25:09;;;;;;;6.97;5.27;;;3.90;99.90;;;;;;5079881;28;20461;-62
2021/12/12 07:27:36;;;;;;;8.23;5.07;;;4.00;99.90;;;;;;5080106;28;20486;-62
2021/12/12 07:30:08;;;;;;;5.23;4.70;;;4.00;99.90;;;;;;5079928;28;20501;-63
2021/12/12 07:32:36;;;;;;;9.57;5.20;;;4.00;99.90;;;;;;5080037;28;20558;-62
2021/12/12 07:35:10;;;;;;;7.27;4.97;;;4.00;99.90;;;;;;5080002;28;20524;-62
2021/12/12 07:37:39;;;;;;;7.03;5.00;;;4.00;99.90;;;;;;5080187;28;20515;-62
2021/12/12 07:40:08;;;;;;;6.73;5.27;;;4.00;99.90;;;;;;5079950;28;20497;-62
2021/12/12 07:42:37;;;;;;;6.80;4.50;;;4.00;99.90;;;;;;5079339;28;20853;-62
2021/12/12 07:45:07;;;;;;;5.03;4.53;;;4.00;99.90;;;;;;5079575;28;20464;-62
2021/12/12 07:47:35;;;;;;;5.20;4.60;;;4.10;99.90;;;;;;5079288;28;20482;-61
2021/12/12 07:50:06;;;;;;;7.33;5.17;;;4.10;99.90;;;;;;5079262;28;20872;-61
2021/12/12 07:52:36;;;;;;;7.03;5.00;;;4.10;99.90;;;;;;5079012;28;20453;-60
2021/12/12 07:55:05;;;;;;;4.87;4.37;;;4.20;99.90;;;;;;5079453;28;20504;-61
2021/12/12 07:57:32;;;;;;;7.30;5.60;;;4.20;99.90;;;;;;5079299;28;20546;-62
2021/12/12 08:00:00;;;;;;;12.50;8.80;;;4.20;99.90;;;;;;5079379;28;20461;-62
2021/12/12 08:02:31;;;;;;;9.30;7.50;;;4.30;99.90;;;;;;5077786;28;20466;-61
2021/12/12 08:04:59;;;;;;;10.50;6.60;;;4.30;99.90;;;;;;5079056;28;20457;-62
2021/12/12 08:07:29;;;;;;;8.40;6.70;;;4.40;99.90;;;;;;5077980;28;21816;-62
2021/12/12 08:09:56;;;;;;;8.07;5.97;;;4.30;99.90;;;;;;5076942;28;20457;-61
2021/12/12 08:12:28;;;;;;;5.60;4.50;;;4.30;99.90;;;;;;5078483;28;20890;-62
2021/12/12 08:14:56;;;;;;;9.10;4.37;;;4.40;99.90;;;;;;5077363;28;20513;-62
2021/12/12 08:17:24;;;;;;;5.90;4.57;;;4.40;99.90;;;;;;5078889;28;20477;-61
2021/12/12 08:19:56;;;;;;;6.03;4.80;;;4.40;99.90;;;;;;5078058;28;20736;-61
2021/12/12 08:22:26;;;;;;;4.83;4.13;;;4.40;99.90;;;;;;5077998;28;20461;-61
2021/12/12 08:24:53;;;;;;;9.93;4.73;;;4.50;99.90;;;;;;5076346;28;20457;-61
2021/12/12 08:27:24;;;;;;;4.37;3.97;;;4.50;99.90;;;;;;5078797;28;20458;-61
2021/12/12 08:29:52;;;;;;;4.40;3.90;;;4.50;99.90;;;;;;5078871;28;20481;-61
2021/12/12 08:32:22;;;;;;;5.07;4.30;;;4.50;99.90;;;;;;5076466;28;20484;-61
2021/12/12 08:34:49;;;;;;;11.80;6.40;;;4.50;99.90;;;;;;5078228;28;20513;-61
2021/12/12 08:37:17;;;;;;;25.57;12.90;;;4.60;99.90;;;;;;5077712;28;20511;-61
2021/12/12 08:39:47;;;;;;;20.47;13.97;;;4.60;99.90;;;;;;5078848;28;20485;-62
2021/12/12 08:42:15;;;;;;;11.87;7.00;;;4.60;99.90;;;;;;5077979;28;20453;-61
2021/12/12 08:44:42;;;;;;;10.90;8.23;;;4.60;99.90;;;;;;5077988;28;20457;-61
2021/12/12 08:47:12;;;;;;;9.30;7.07;;;4.70;99.90;;;;;;5078072;28;20513;-61
2021/12/12 08:49:42;;;;;;;7.80;6.17;;;4.70;99.90;;;;;;5078038;28;20496;-61
2021/12/12 08:52:14;;;;;;;7.90;6.50;;;4.70;99.90;;;;;;5078054;28;20895;-61
2021/12/12 08:54:46;;;;;;;7.50;6.30;;;4.70;99.90;;;;;;5077327;28;20520;-61
2021/12/12 08:57:23;;;;;;;13.33;8.47;;;4.70;99.90;;;;;;5076101;28;20428;-62
2021/12/12 08:59:53;;;;;;;8.50;7.37;;;4.80;99.90;;;;;;5077972;28;20461;-61
2021/12/12 09:02:23;;;;;;;7.60;5.33;;;4.80;99.90;;;;;;5078098;28;20486;-61
2021/12/12 09:04:55;;;;;;;5.90;5.33;;;4.80;99.90;;;;;;5077731;28;20436;-62
2021/12/12 09:07:28;;;;;;;8.60;7.07;;;4.80;99.90;;;;;;5078253;28;20457;-62
2021/12/12 09:10:04;;;;;;;6.33;5.60;;;4.90;99.90;;;;;;5078195;28;20492;-63
2021/12/12 09:12:38;;;;;;;5.63;5.03;;;4.90;99.90;;;;;;5078874;28;20895;-62
2021/12/12 09:15:13;;;;;;;6.20;4.50;;;4.90;99.90;;;;;;5076392;28;20481;-63
2021/12/12 09:17:46;;;;;;;5.27;4.77;;;5.00;99.90;;;;;;5077385;28;20464;-63
2021/12/12 09:20:21;;;;;;;4.80;4.30;;;5.00;99.90;;;;;;5077645;28;20436;-63
2021/12/12 09:22:59;;;;;;;5.07;4.20;;;5.00;99.90;;;;;;5078593;28;20960;-63
2021/12/12 09:25:36;;;;;;;4.90;4.40;;;5.00;99.90;;;;;;5077965;28;20467;-63
2021/12/12 09:28:08;;;;;;;5.07;3.87;;;5.10;99.90;;;;;;5077338;28;20457;-62
2021/12/12 09:30:36;;;;;;;4.87;4.47;;;5.10;99.90;;;;;;5076605;28;20447;-63
2021/12/12 09:33:09;;;;;;;4.80;4.30;;;5.10;99.90;;;;;;5077202;28;20465;-62
2021/12/12 09:35:41;;;;;;;5.00;3.60;;;5.20;99.90;;;;;;5076874;28;20496;-63
2021/12/12 09:38:13;;;;;;;5.97;4.00;;;5.20;99.90;;;;;;5076727;28;20735;-63
2021/12/12 09:41:11;;;;;;;3.97;3.50;;;5.20;99.90;;;;;;5078205;28;20469;-63
2021/12/12 09:44:13;;;;;;;4.50;3.70;;;5.20;99.90;;;;;;5077685;28;20497;-62
2021/12/12 09:47:11;;;;;;;4.50;4.13;;;5.30;99.90;;;;;;5076802;28;20887;-63
2021/12/12 09:52:58;;;;;;;4.47;4.07;;;5.30;99.90;;;;;;5077868;28;20447;-63
2021/12/12 09:55:29;;;;;;;3.80;3.20;;;5.20;99.90;;;;;;5076716;28;21037;-62
2021/12/12 09:58:02;;;;;;;3.70;3.40;;;5.30;99.90;;;;;;5077738;28;20511;-61
2021/12/12 10:00:37;;;;;;;4.17;3.77;;;5.30;99.90;;;;;;5076354;28;20436;-62
2021/12/12 10:03:16;;;;;;;3.90;3.60;;;5.40;99.90;;;;;;5077477;28;20465;-62
2021/12/12 10:06:01;;;;;;;4.90;4.50;;;5.30;99.90;;;;;;5076625;28;20493;-62
2021/12/12 10:08:48;;;;;;;4.70;4.20;;;5.40;99.90;;;;;;5066430;28;20823;-62
2021/12/12 10:11:31;;;;;;;7.90;3.93;;;5.40;99.90;;;;;;5077139;28;20461;-62
2021/12/12 10:14:05;;;;;;;5.70;4.20;;;5.40;99.90;;;;;;5076580;28;20515;-62
2021/12/12 10:16:38;;;;;;;5.13;4.73;;;5.40;99.90;;;;;;5077352;28;20500;-62
2021/12/12 10:19:14;;;;;;;4.87;4.47;;;5.40;99.90;;;;;;5076501;28;20758;-62
2021/12/12 10:21:55;;;;;;;4.93;4.53;;;5.50;99.90;;;;;;5076244;28;20461;-62
2021/12/12 10:24:30;;;;;;;5.60;5.10;;;5.40;99.90;;;;;;5076828;28;20482;-62
2021/12/12 10:27:04;;;;;;;7.80;5.20;;;5.50;99.90;;;;;;5076555;28;20439;-62
2021/12/12 10:29:40;;;;;;;6.67;5.97;;;5.50;99.90;;;;;;5077418;28;20887;-62
2021/12/12 10:32:13;;;;;;;7.60;5.33;;;5.50;99.90;;;;;;5077128;28;20508;-62
2021/12/12 10:34:47;;;;;;;5.80;5.30;;;5.50;99.90;;;;;;5076472;28;20469;-62
2021/12/12 10:37:19;;;;;;;7.90;6.10;;;5.50;99.90;;;;;;5077219;28;20816;-63
2021/12/12 10:39:53;;;;;;;8.73;7.83;;;5.60;99.90;;;;;;5071990;28;20469;-63
2021/12/12 10:42:30;;;;;;;7.20;6.20;;;5.60;99.90;;;;;;5076696;28;20505;-63
2021/12/12 10:45:01;;;;;;;8.80;8.00;;;5.60;99.90;;;;;;5057345;28;20457;-63
2021/12/12 10:47:37;;;;;;;14.00;12.57;;;5.60;99.90;;;;;;5057128;28;20457;-63
2021/12/12 10:50:13;;;;;;;8.00;7.20;;;5.60;99.90;;;;;;5076369;28;20469;-63
2021/12/12 10:52:45;;;;;;;11.07;7.80;;;5.70;99.90;;;;;;5077156;28;20518;-63
2021/12/12 10:55:20;;;;;;;7.30;6.60;;;5.60;99.90;;;;;;5077166;28;20931;-63
2021/12/12 10:58:06;;;;;;;9.10;8.17;;;5.60;99.90;;;;;;5077327;28;20518;-62
2021/12/12 11:00:40;;;;;;;6.30;5.30;;;5.70;99.90;;;;;;5076834;28;20469;-62
2021/12/12 11:03:09;;;;;;;7.27;6.47;;;5.70;99.90;;;;;;5076326;28;20914;-62
2021/12/12 11:05:39;;;;;;;6.63;5.93;;;5.70;99.90;;;;;;5076723;28;20884;-62
2021/12/12 11:08:12;;;;;;;11.87;6.20;;;5.70;99.90;;;;;;5076432;28;20436;-62
2021/12/12 11:10:47;;;;;;;7.20;6.03;;;5.70;99.90;;;;;;5075224;28;20482;-63
2021/12/12 11:13:19;;;;;;;7.83;7.00;;;5.70;99.90;;;;;;5076650;28;20465;-62
2021/12/12 11:15:51;;;;;;;8.40;7.57;;;5.70;99.90;;;;;;5076134;28;20931;-62
2021/12/12 11:18:21;;;;;;;8.33;7.57;;;5.70;99.90;;;;;;5076313;28;20440;-62
2021/12/12 11:20:52;;;;;;;7.33;6.57;;;5.80;99.90;;;;;;5075498;28;20504;-63
2021/12/12 11:23:26;;;;;;;7.47;6.00;;;5.80;99.90;;;;;;5077159;28;20523;-63
2021/12/12 11:25:57;;;;;;;7.20;5.80;;;5.80;99.90;;;;;;5075681;28;20489;-62
2021/12/12 11:28:31;;;;;;;9.10;7.07;;;5.80;99.90;;;;;;5077000;28;20501;-62
2021/12/12 11:31:08;;;;;;;12.27;9.53;;;5.80;99.90;;;;;;5066846;28;20436;-63
2021/12/12 11:33:37;;;;;;;8.63;7.73;;;5.80;99.90;;;;;;5076081;28;20439;-63
2021/12/12 11:36:12;;;;;;;8.37;6.00;;;5.80;99.90;;;;;;5076090;28;20493;-63
2021/12/12 11:38:45;;;;;;;9.10;7.73;;;5.80;99.90;;;;;;5076935;28;20465;-62
2021/12/12 11:41:21;;;;;;;10.83;9.67;;;5.90;99.90;;;;;;5075699;28;20464;-62
2021/12/12 11:43:55;;;;;;;12.00;6.80;;;5.80;99.90;;;;;;5075770;28;20484;-63
2021/12/12 11:46:33;;;;;;;8.23;6.90;;;5.90;99.90;;;;;;5076705;28;20457;-62
2021/12/12 11:49:07;;;;;;;9.10;7.00;;;5.90;99.90;;;;;;5076377;28;20518;-62
2021/12/12 11:51:42;;;;;;;9.80;7.47;;;5.90;99.90;;;;;;5075826;28;20930;-63
2021/12/12 11:54:22;;;;;;;8.67;7.03;;;5.90;99.90;;;;;;5077901;28;20537;-62
2021/12/12 11:56:53;;;;;;;12.80;7.97;;;5.90;99.90;;;;;;5060460;28;20794;-63
2021/12/12 11:59:26;;;;;;;7.20;5.50;;;6.00;99.90;;;;;;5065121;28;20465;-63
2021/12/12 12:02:04;;;;;;;8.00;6.43;;;6.00;99.90;;;;;;5079135;28;20759;-63
2021/12/12 12:04:43;;;;;;;7.13;6.27;;;6.00;99.90;;;;;;5077226;28;20915;-63
2021/12/12 12:07:21;;;;;;;6.97;6.23;;;6.00;99.90;;;;;;5079223;28;20445;-63
2021/12/12 12:10:12;;;;;;;6.20;5.30;;;6.00;99.90;;;;;;5079018;28;20944;-64
2021/12/12 12:13:17;;;;;;;7.00;6.30;;;6.00;99.90;;;;;;5078166;28;20500;-63
2021/12/12 12:15:53;;;;;;;11.97;7.20;;;6.00;99.90;;;;;;4997469;28;20558;-63
2021/12/12 12:18:37;;;;;;;6.17;5.57;;;6.00;99.90;;;;;;5070371;28;20465;-64
2021/12/12 12:21:11;;;;;;;7.23;6.57;;;6.10;99.90;;;;;;5079881;28;20465;-63
2021/12/12 12:24:10;;;;;;;7.57;6.50;;;6.00;99.90;;;;;;5065338;28;20461;-63
2021/12/12 12:26:56;;;;;;;5.70;5.00;;;6.10;99.90;;;;;;5079651;28;20907;-63
2021/12/12 12:30:10;;;;;;;7.10;6.20;;;6.10;99.90;;;;;;5079235;28;20436;-64
2021/12/12 12:33:13;;;;;;;7.47;5.50;;;6.10;99.90;;;;;;5077801;28;20495;-63
2021/12/12 12:36:28;;;;;;;7.10;5.50;;;6.20;99.90;;;;;;5079796;28;20562;-64
2021/12/12 12:39:29;;;;;;;7.43;5.57;;;6.20;99.90;;;;;;5081222;28;20471;-63
2021/12/12 12:42:38;;;;;;;5.97;5.20;;;6.20;99.90;;;;;;5079538;28;20457;-63
2021/12/12 12:45:35;;;;;;;4.90;4.50;;;6.20;99.90;;;;;;5079735;28;20922;-63
2021/12/12 12:48:59;;;;;;;5.03;4.57;;;6.20;99.90;;;;;;5084073;28;20484;-63
2021/12/12 12:51:56;;;;;;;6.43;4.70;;;6.20;99.90;;;;;;5025289;28;20469;-62
2021/12/12 12:54:38;;;;;;;6.17;5.57;;;6.20;99.90;;;;;;5044981;28;20428;-62
2021/12/12 12:57:20;;;;;;;6.07;5.47;;;6.20;99.90;;;;;;5072358;28;20495;-62
2021/12/12 13:00:06;;;;;;;5.27;4.73;;;6.20;99.90;;;;;;5070153;28;20486;-62
2021/12/12 13:03:02;;;;;;;4.90;4.40;;;6.30;99.90;;;;;;5078166;28;20462;-62
2021/12/12 13:06:03;;;;;;;6.60;5.70;;;6.30;99.90;;;;;;5078459;28;20811;-62
2021/12/12 13:09:00;;;;;;;8.00;5.67;;;6.30;99.90;;;;;;5077646;28;20478;-63
2021/12/12 13:11:36;;;;;;;5.43;4.97;;;6.30;99.90;;;;;;5072580;28;20900;-63
2021/12/12 13:14:23;;;;;;;4.90;4.13;;;6.30;99.90;;;;;;5076174;28;20447;-63
2021/12/12 13:16:56;;;;;;;5.60;5.10;;;6.30;99.90;;;;;;5074962;28;20926;-63
2021/12/12 13:19:38;;;;;;;10.73;7.10;;;6.40;99.90;;;;;;5076677;28;20515;-63
2021/12/12 13:22:12;;;;;;;5.57;4.63;;;6.40;99.90;;;;;;5077492;28;20523;-63
2021/12/12 13:24:57;;;;;;;6.40;5.80;;;6.40;99.90;;;;;;5077856;28;20457;-62
2021/12/12 13:27:55;;;;;;;6.07;5.57;;;6.40;99.90;;;;;;5074192;28;20515;-63
2021/12/12 13:30:29;;;;;;;6.50;5.40;;;6.40;99.90;;;;;;5075471;28;20588;-63
2021/12/12 13:33:07;;;;;;;8.77;7.87;;;6.50;99.90;;;;;;5076141;28;20462;-63
2021/12/12 13:35:43;;;;;;;9.97;9.07;;;6.60;99.90;;;;;;5057849;28;20469;-63
2021/12/12 13:38:17;;;;;;;7.93;7.23;;;6.60;99.90;;;;;;5069271;28;20535;-63
2021/12/12 13:40:59;;;;;;;7.60;6.90;;;6.60;99.90;;;;;;5076215;28;20518;-63
2021/12/12 13:43:39;;;;;;;4.57;4.17;;;6.70;99.90;;;;;;5076049;28;20478;-62